sensor_id;sensor_type;location;lat;lon;timestamp;pressure;altitude;pressure_sealevel;temperature;humidity
13476;BME280;6810;63.824;20.288;2023-04-02T00:01:17;102605.59;;;0.14;57.80
13476;BME280;6810;63.824;20.288;2023-04-02T00:06:31;102629.28;;;0.20;57.84
13476;BME280;6810;63.824;20.288;2023-04-02T00:09:19;102632.75;;;0.18;58.32
13476;BME280;6810;63.824;20.288;2023-04-02T00:11:49;102641.47;;;0.17;58.11
13476;BME280;6810;63.824;20.288;2023-04-02T00:16:54;102614.00;;;-0.08;58.03
13476;BME280;6810;63.824;20.288;2023-04-02T00:19:31;102634.22;;;0.00;57.72
13476;BME280;6810;63.824;20.288;2023-04-02T00:22:02;102611.22;;;-0.20;57.72
13476;BME280;6810;63.824;20.288;2023-04-02T00:24:32;102646.34;;;-0.06;57.47
13476;BME280;6810;63.824;20.288;2023-04-02T00:27:00;102657.00;;;0.03;57.91
13476;BME280;6810;63.824;20.288;2023-04-02T00:29:27;102663.94;;;-0.01;57.46
13476;BME280;6810;63.824;20.288;2023-04-02T00:31:54;102677.00;;;-0.02;57.49
13476;BME280;6810;63.824;20.288;2023-04-02T00:34:36;102676.06;;;-0.06;57.29
13476;BME280;6810;63.824;20.288;2023-04-02T00:37:03;102679.56;;;-0.07;57.80
13476;BME280;6810;63.824;20.288;2023-04-02T00:39:36;102689.13;;;-0.09;57.33
13476;BME280;6810;63.824;20.288;2023-04-02T00:42:11;102666.16;;;-0.25;57.57
13476;BME280;6810;63.824;20.288;2023-04-02T00:44:40;102688.16;;;-0.14;57.22
13476;BME280;6810;63.824;20.288;2023-04-02T00:47:34;102696.00;;;-0.15;57.78
13476;BME280;6810;63.824;20.288;2023-04-02T00:50:26;102697.69;;;-0.19;57.66
13476;BME280;6810;63.824;20.288;2023-04-02T00:52:57;102704.59;;;-0.24;57.31
13476;BME280;6810;63.824;20.288;2023-04-02T00:55:35;102636.53;;;-0.70;57.77
13476;BME280;6810;63.824;20.288;2023-04-02T00:58:25;102703.50;;;-0.35;57.23
13476;BME280;6810;63.824;20.288;2023-04-02T01:00:53;102705.16;;;-0.40;57.07
13476;BME280;6810;63.824;20.288;2023-04-02T01:05:51;102731.53;;;-0.31;57.07
13476;BME280;6810;63.824;20.288;2023-04-02T01:13:54;102745.34;;;-0.39;57.07
13476;BME280;6810;63.824;20.288;2023-04-02T01:16:38;102753.16;;;-0.41;56.92
13476;BME280;6810;63.824;20.288;2023-04-02T01:24:31;102758.25;;;-0.48;57.41
13476;BME280;6810;63.824;20.288;2023-04-02T01:27:20;102769.56;;;-0.51;57.59
13476;BME280;6810;63.824;20.288;2023-04-02T01:29:54;102739.44;;;-0.74;56.94
13476;BME280;6810;63.824;20.288;2023-04-02T01:32:25;102753.53;;;-0.66;56.95
13476;BME280;6810;63.824;20.288;2023-04-02T01:34:54;102786.91;;;-0.56;57.11
13476;BME280;6810;63.824;20.288;2023-04-02T01:40:22;102784.22;;;-0.60;56.95
13476;BME280;6810;63.824;20.288;2023-04-02T01:45:42;102797.22;;;-0.65;56.97
13476;BME280;6810;63.824;20.288;2023-04-02T01:50:42;102801.47;;;-0.70;56.66
13476;BME280;6810;63.824;20.288;2023-04-02T01:53:13;102814.50;;;-0.71;56.81
13476;BME280;6810;63.824;20.288;2023-04-02T01:58:11;102820.56;;;-0.75;57.58
13476;BME280;6810;63.824;20.288;2023-04-02T02:01:51;102823.97;;;-0.78;56.66
13476;BME280;6810;63.824;20.288;2023-04-02T02:03:58;102806.22;;;-0.92;57.21
13476;BME280;6810;63.824;20.288;2023-04-02T02:06:25;102828.19;;;-0.86;57.35
13476;BME280;6810;63.824;20.288;2023-04-02T02:08:56;102833.44;;;-0.84;56.89
13476;BME280;6810;63.824;20.288;2023-04-02T02:11:27;102832.50;;;-0.86;57.28
13476;BME280;6810;63.824;20.288;2023-04-02T02:14:11;102844.69;;;-0.88;57.19
13476;BME280;6810;63.824;20.288;2023-04-02T02:16:40;102849.00;;;-0.90;57.47
13476;BME280;6810;63.824;20.288;2023-04-02T02:21:51;102866.38;;;-0.94;56.94
13476;BME280;6810;63.824;20.288;2023-04-02T02:24:23;102862.78;;;-0.97;56.81
13476;BME280;6810;63.824;20.288;2023-04-02T02:35:52;102843.78;;;-1.27;57.13
13476;BME280;6810;63.824;20.288;2023-04-02T02:40:52;102888.59;;;-1.12;57.48
13476;BME280;6810;63.824;20.288;2023-04-02T02:43:23;102886.75;;;-1.18;56.79
13476;BME280;6810;63.824;20.288;2023-04-02T02:45:54;102874.19;;;-1.31;57.38
13476;BME280;6810;63.824;20.288;2023-04-02T02:48:30;102908.50;;;-1.19;57.22
13476;BME280;6810;63.824;20.288;2023-04-02T02:51:06;102910.22;;;-1.21;57.50
13476;BME280;6810;63.824;20.288;2023-04-02T02:53:44;102919.75;;;-1.23;57.31
13476;BME280;6810;63.824;20.288;2023-04-02T02:56:14;102920.56;;;-1.25;57.59
13476;BME280;6810;63.824;20.288;2023-04-02T02:58:42;102929.22;;;-1.26;56.43
13476;BME280;6810;63.824;20.288;2023-04-02T03:01:20;102930.06;;;-1.29;56.68
13476;BME280;6810;63.824;20.288;2023-04-02T03:03:52;102929.03;;;-1.34;56.48
13476;BME280;6810;63.824;20.288;2023-04-02T03:06:23;102944.78;;;-1.32;57.48
13476;BME280;6810;63.824;20.288;2023-04-02T03:09:16;102949.03;;;-1.36;56.77
13476;BME280;6810;63.824;20.288;2023-04-02T03:11:53;102949.84;;;-1.38;57.58
13476;BME280;6810;63.824;20.288;2023-04-02T03:14:39;102964.59;;;-1.40;56.80
13476;BME280;6810;63.824;20.288;2023-04-02T03:17:16;102963.66;;;-1.44;57.21
13476;BME280;6810;63.824;20.288;2023-04-02T03:19:52;102965.34;;;-1.46;57.62
13476;BME280;6810;63.824;20.288;2023-04-02T03:25:20;102977.38;;;-1.51;57.37
13476;BME280;6810;63.824;20.288;2023-04-02T03:27:50;102933.88;;;-1.80;57.12
13476;BME280;6810;63.824;20.288;2023-04-02T03:30:45;102981.63;;;-1.56;57.77
13476;BME280;6810;63.824;20.288;2023-04-02T03:33:26;102986.81;;;-1.57;57.27
13476;BME280;6810;63.824;20.288;2023-04-02T03:36:22;102991.97;;;-1.60;56.64
13476;BME280;6810;63.824;20.288;2023-04-02T03:39:17;102991.00;;;-1.64;57.77
13476;BME280;6810;63.824;20.288;2023-04-02T03:42:14;102997.84;;;-1.67;57.05
13476;BME280;6810;63.824;20.288;2023-04-02T03:44:49;102967.47;;;-1.94;56.78
13476;BME280;6810;63.824;20.288;2023-04-02T03:47:34;103009.00;;;-1.74;56.97
13476;BME280;6810;63.824;20.288;2023-04-02T03:52:38;103014.09;;;-1.79;56.93
13476;BME280;6810;63.824;20.288;2023-04-02T03:55:15;103011.25;;;-1.87;57.89
13476;BME280;6810;63.824;20.288;2023-04-02T04:00:34;103019.97;;;-1.86;57.24
13476;BME280;6810;63.824;20.288;2023-04-02T04:03:10;103026.88;;;-1.88;57.27
13476;BME280;6810;63.824;20.288;2023-04-02T04:06:15;103033.75;;;-1.92;57.43
13476;BME280;6810;63.824;20.288;2023-04-02T04:09:14;103033.66;;;-1.95;58.11
13476;BME280;6810;63.824;20.288;2023-04-02T04:11:47;103037.84;;;-2.00;58.21
13476;BME280;6810;63.824;20.288;2023-04-02T04:14:36;103050.91;;;-2.00;57.12
13476;BME280;6810;63.824;20.288;2023-04-02T04:17:18;103060.38;;;-2.03;57.00
13476;BME280;6810;63.824;20.288;2023-04-02T04:22:32;103059.38;;;-2.08;57.30
13476;BME280;6810;63.824;20.288;2023-04-02T04:25:26;103075.00;;;-2.10;57.19
13476;BME280;6810;63.824;20.288;2023-04-02T04:28:19;102976.38;;;-2.73;57.70
13476;BME280;6810;63.824;20.288;2023-04-02T04:30:58;103093.97;;;-2.15;57.92
13476;BME280;6810;63.824;20.288;2023-04-02T04:33:41;103088.59;;;-2.20;57.75
13476;BME280;6810;63.824;20.288;2023-04-02T04:36:26;103009.53;;;-2.69;57.60
13476;BME280;6810;63.824;20.288;2023-04-02T04:39:15;103048.38;;;-2.53;57.56
13476;BME280;6810;63.824;20.288;2023-04-02T04:41:47;103111.13;;;-2.23;58.42
13476;BME280;6810;63.824;20.288;2023-04-02T04:44:42;103104.78;;;-2.31;57.56
13476;BME280;6810;63.824;20.288;2023-04-02T04:47:19;103110.03;;;-2.30;57.07
13476;BME280;6810;63.824;20.288;2023-04-02T04:49:56;103119.59;;;-2.30;57.95
13476;BME280;6810;63.824;20.288;2023-04-02T04:52:32;103097.25;;;-2.47;57.54
13476;BME280;6810;63.824;20.288;2023-04-02T04:57:46;103126.44;;;-2.34;58.00
13476;BME280;6810;63.824;20.288;2023-04-02T05:00:19;103136.81;;;-2.35;58.60
13476;BME280;6810;63.824;20.288;2023-04-02T05:03:11;103136.72;;;-2.38;58.66
13476;BME280;6810;63.824;20.288;2023-04-02T05:05:43;103143.75;;;-2.37;57.78
13476;BME280;6810;63.824;20.288;2023-04-02T05:08:21;103148.91;;;-2.39;57.99
13476;BME280;6810;63.824;20.288;2023-04-02T05:11:27;103152.34;;;-2.40;57.78
13476;BME280;6810;63.824;20.288;2023-04-02T05:14:00;103165.41;;;-2.40;57.58
13476;BME280;6810;63.824;20.288;2023-04-02T05:22:02;103174.03;;;-2.42;57.49
13476;BME280;6810;63.824;20.288;2023-04-02T05:24:50;103168.53;;;-2.50;58.05
13476;BME280;6810;63.824;20.288;2023-04-02T05:30:00;103163.97;;;-2.57;58.48
13476;BME280;6810;63.824;20.288;2023-04-02T05:32:34;103187.06;;;-2.42;57.83
13476;BME280;6810;63.824;20.288;2023-04-02T05:35:14;103193.19;;;-2.42;57.67
13476;BME280;6810;63.824;20.288;2023-04-02T05:37:42;103199.28;;;-2.41;58.61
13476;BME280;6810;63.824;20.288;2023-04-02T05:40:16;103205.41;;;-2.41;57.82
13476;BME280;6810;63.824;20.288;2023-04-02T05:42:48;103214.13;;;-2.40;57.71
13476;BME280;6810;63.824;20.288;2023-04-02T05:45:27;103199.13;;;-2.46;58.67
13476;BME280;6810;63.824;20.288;2023-04-02T05:47:58;103210.72;;;-2.38;58.03
13476;BME280;6810;63.824;20.288;2023-04-02T05:50:39;103217.72;;;-2.37;58.07
13476;BME280;6810;63.824;20.288;2023-04-02T05:54:00;103219.50;;;-2.36;58.48
13476;BME280;6810;63.824;20.288;2023-04-02T05:58:59;103225.72;;;-2.32;57.79
13476;BME280;6810;63.824;20.288;2023-04-02T06:12:44;103223.91;;;-2.35;58.99
13476;BME280;6810;63.824;20.288;2023-04-02T06:15:18;103246.19;;;-2.19;58.11
13476;BME280;6810;63.824;20.288;2023-04-02T06:17:58;103245.31;;;-2.20;58.68
13476;BME280;6810;63.824;20.288;2023-04-02T06:20:27;103250.69;;;-2.15;58.10
13476;BME280;6810;63.824;20.288;2023-04-02T06:23:05;103237.41;;;-2.21;58.07
13476;BME280;6810;63.824;20.288;2023-04-02T06:25:37;103171.78;;;-2.57;58.92
13476;BME280;6810;63.824;20.288;2023-04-02T06:28:15;103257.84;;;-2.10;57.98
13476;BME280;6810;63.824;20.288;2023-04-02T06:30:57;103255.19;;;-2.11;59.12
13476;BME280;6810;63.824;20.288;2023-04-02T06:33:29;103265.94;;;-2.02;58.17
13476;BME280;6810;63.824;20.288;2023-04-02T06:35:56;103263.34;;;-2.02;58.23
13476;BME280;6810;63.824;20.288;2023-04-02T06:38:30;103258.94;;;-2.03;59.00
13476;BME280;6810;63.824;20.288;2023-04-02T06:41:11;103276.69;;;-1.93;58.77
13476;BME280;6810;63.824;20.288;2023-04-02T06:44:13;103271.59;;;-1.90;59.05
13476;BME280;6810;63.824;20.288;2023-04-02T06:52:05;103286.72;;;-1.80;59.45
13476;BME280;6810;63.824;20.288;2023-04-02T06:54:36;103294.66;;;-1.77;58.72
13476;BME280;6810;63.824;20.288;2023-04-02T06:57:08;103286.06;;;-1.74;58.29
13476;BME280;6810;63.824;20.288;2023-04-02T06:59:39;103263.84;;;-1.87;58.43
13476;BME280;6810;63.824;20.288;2023-04-02T07:02:29;103300.19;;;-1.68;58.28
13476;BME280;6810;63.824;20.288;2023-04-02T07:05:03;103246.25;;;-1.93;58.78
13476;BME280;6810;63.824;20.288;2023-04-02T07:07:32;103303.88;;;-1.61;58.80
13476;BME280;6810;63.824;20.288;2023-04-02T07:10:02;103301.38;;;-1.58;59.40
13476;BME280;6810;63.824;20.288;2023-04-02T07:12:30;103311.06;;;-1.56;58.77
13476;BME280;6810;63.824;20.288;2023-04-02T07:14:57;103305.94;;;-1.53;59.53
13476;BME280;6810;63.824;20.288;2023-04-02T07:17:24;103310.38;;;-1.50;58.46
13476;BME280;6810;63.824;20.288;2023-04-02T07:19:51;103313.06;;;-1.47;58.49
13476;BME280;6810;63.824;20.288;2023-04-02T07:22:20;103301.56;;;-1.52;58.67
13476;BME280;6810;63.824;20.288;2023-04-02T07:24:52;103311.56;;;-1.41;59.10
13476;BME280;6810;63.824;20.288;2023-04-02T07:27:19;103306.13;;;-1.47;59.24
13476;BME280;6810;63.824;20.288;2023-04-02T07:29:46;103326.59;;;-1.34;58.52
13476;BME280;6810;63.824;20.288;2023-04-02T07:32:13;103330.19;;;-1.30;58.88
13476;BME280;6810;63.824;20.288;2023-04-02T07:34:40;103318.69;;;-1.35;58.97
13476;BME280;6810;63.824;20.288;2023-04-02T07:37:11;103339.09;;;-1.25;58.46
13476;BME280;6810;63.824;20.288;2023-04-02T07:39:39;103340.91;;;-1.23;58.44
13476;BME280;6810;63.824;20.288;2023-04-02T07:42:06;103319.66;;;-1.33;59.00
13476;BME280;6810;63.824;20.288;2023-04-02T07:44:33;103349.91;;;-1.15;58.95
13476;BME280;6810;63.824;20.288;2023-04-02T07:47:00;103352.59;;;-1.12;59.41
13476;BME280;6810;63.824;20.288;2023-04-02T07:49:27;103332.25;;;-1.20;59.31
13476;BME280;6810;63.824;20.288;2023-04-02T07:51:54;103351.94;;;-1.05;58.91
13476;BME280;6810;63.824;20.288;2023-04-02T07:54:21;103358.13;;;-1.03;59.12
13476;BME280;6810;63.824;20.288;2023-04-02T07:56:48;103358.25;;;-0.98;59.67
13476;BME280;6810;63.824;20.288;2023-04-02T07:59:15;103365.31;;;-0.96;58.71
13476;BME280;6810;63.824;20.288;2023-04-02T08:01:42;103367.88;;;-0.97;59.47
13476;BME280;6810;63.824;20.288;2023-04-02T08:04:16;103372.53;;;-0.89;59.63
13476;BME280;6810;63.824;20.288;2023-04-02T08:06:44;103371.72;;;-0.86;58.85
13476;BME280;6810;63.824;20.288;2023-04-02T08:09:12;103368.16;;;-0.88;59.18
13476;BME280;6810;63.824;20.288;2023-04-02T08:11:39;103372.00;;;-0.77;59.08
13476;BME280;6810;63.824;20.288;2023-04-02T08:14:08;103386.09;;;-0.74;59.63
13476;BME280;6810;63.824;20.288;2023-04-02T08:17:02;103390.56;;;-0.70;59.03
13476;BME280;6810;63.824;20.288;2023-04-02T08:19:29;103392.41;;;-0.66;58.94
13476;BME280;6810;63.824;20.288;2023-04-02T08:21:56;103391.69;;;-0.62;59.47
13476;BME280;6810;63.824;20.288;2023-04-02T08:24:23;103380.03;;;-0.71;58.88
13476;BME280;6810;63.824;20.288;2023-04-02T08:26:50;103391.88;;;-0.56;58.71
13476;BME280;6810;63.824;20.288;2023-04-02T08:29:20;103387.53;;;-0.55;58.93
13476;BME280;6810;63.824;20.288;2023-04-02T08:31:47;103395.66;;;-0.46;58.77
13476;BME280;6810;63.824;20.288;2023-04-02T08:34:14;103390.41;;;-0.46;59.31
13476;BME280;6810;63.824;20.288;2023-04-02T08:36:43;103409.84;;;-0.38;58.83
13476;BME280;6810;63.824;20.288;2023-04-02T08:39:11;103409.97;;;-0.34;58.26
13476;BME280;6810;63.824;20.288;2023-04-02T08:41:47;103397.50;;;-0.42;59.03
13476;BME280;6810;63.824;20.288;2023-04-02T08:47:00;103415.66;;;-0.20;59.08
13476;BME280;6810;63.824;20.288;2023-04-02T08:49:42;103387.28;;;-0.33;59.16
13476;BME280;6810;63.824;20.288;2023-04-02T08:52:23;103429.06;;;-0.10;58.96
13476;BME280;6810;63.824;20.288;2023-04-02T08:54:51;103380.13;;;-0.40;59.04
13476;BME280;6810;63.824;20.288;2023-04-02T08:57:30;103427.50;;;-0.02;58.57
13476;BME280;6810;63.824;20.288;2023-04-02T09:00:11;103443.50;;;0.06;59.23
13476;BME280;6810;63.824;20.288;2023-04-02T09:02:53;103449.72;;;0.11;58.95
13476;BME280;6810;63.824;20.288;2023-04-02T09:05:26;103416.34;;;0.04;58.34
13476;BME280;6810;63.824;20.288;2023-04-02T09:07:58;103444.84;;;0.25;58.75
13476;BME280;6810;63.824;20.288;2023-04-02T09:10:34;103393.56;;;0.02;58.91
13476;BME280;6810;63.824;20.288;2023-04-02T09:13:13;103410.59;;;0.19;58.58
13476;BME280;6810;63.824;20.288;2023-04-02T09:15:42;103440.22;;;0.46;58.53
13476;BME280;6810;63.824;20.288;2023-04-02T09:18:18;103452.69;;;0.54;58.54
13476;BME280;6810;63.824;20.288;2023-04-02T09:20:45;103454.53;;;0.58;58.44
13476;BME280;6810;63.824;20.288;2023-04-02T09:23:19;103464.38;;;0.67;58.24
13476;BME280;6810;63.824;20.288;2023-04-02T09:25:50;103460.19;;;0.73;58.28
13476;BME280;6810;63.824;20.288;2023-04-02T09:28:31;103402.59;;;0.45;58.18
13476;BME280;6810;63.824;20.288;2023-04-02T09:31:03;103460.47;;;0.84;58.01
13476;BME280;6810;63.824;20.288;2023-04-02T09:33:49;103455.28;;;0.87;58.09
13476;BME280;6810;63.824;20.288;2023-04-02T09:36:33;103467.78;;;0.97;57.72
13476;BME280;6810;63.824;20.288;2023-04-02T09:41:35;103472.59;;;1.13;57.96
13476;BME280;6810;63.824;20.288;2023-04-02T09:49:23;103472.28;;;1.38;56.89
13476;BME280;6810;63.824;20.288;2023-04-02T09:52:16;103479.53;;;1.46;56.90
13476;BME280;6810;63.824;20.288;2023-04-02T09:54:45;103454.03;;;1.44;57.11
13476;BME280;6810;63.824;20.288;2023-04-02T09:57:21;103481.66;;;1.64;56.63
13476;BME280;6810;63.824;20.288;2023-04-02T10:03:22;103486.56;;;1.86;56.31
13476;BME280;6810;63.824;20.288;2023-04-02T10:06:12;103435.38;;;1.70;56.14
13476;BME280;6810;63.824;20.288;2023-04-02T10:08:42;103478.25;;;2.08;56.74
13476;BME280;6810;63.824;20.288;2023-04-02T10:11:15;103466.97;;;2.14;56.68
13476;BME280;6810;63.824;20.288;2023-04-02T10:13:50;103475.25;;;2.32;56.54
13476;BME280;6810;63.824;20.288;2023-04-02T10:16:27;103479.00;;;2.44;56.08
13476;BME280;6810;63.824;20.288;2023-04-02T10:19:31;103482.84;;;2.61;55.36
13476;BME280;6810;63.824;20.288;2023-04-02T10:22:04;103478.59;;;2.69;56.22
13476;BME280;6810;63.824;20.288;2023-04-02T10:24:34;103500.09;;;2.92;55.40
13476;BME280;6810;63.824;20.288;2023-04-02T10:30:20;103505.88;;;3.23;54.69
13476;BME280;6810;63.824;20.288;2023-04-02T10:32:59;103502.56;;;3.36;54.33
13476;BME280;6810;63.824;20.288;2023-04-02T10:35:42;103512.50;;;3.52;54.93
13476;BME280;6810;63.824;20.288;2023-04-02T10:46:38;103514.88;;;3.93;54.02
13476;BME280;6810;63.824;20.288;2023-04-02T10:49:15;103508.81;;;4.01;54.03
13476;BME280;6810;63.824;20.288;2023-04-02T10:52:19;103509.84;;;4.11;53.63
13476;BME280;6810;63.824;20.288;2023-04-02T10:54:49;103525.81;;;4.21;52.52
13476;BME280;6810;63.824;20.288;2023-04-02T11:00:30;103513.63;;;4.31;52.73
13476;BME280;6810;63.824;20.288;2023-04-02T11:03:09;103528.81;;;4.51;51.97
13476;BME280;6810;63.824;20.288;2023-04-02T11:05:47;103531.53;;;4.59;51.67
13476;BME280;6810;63.824;20.288;2023-04-02T11:16:03;103537.22;;;4.93;51.65
13476;BME280;6810;63.824;20.288;2023-04-02T11:18:32;103508.91;;;4.83;51.28
13476;BME280;6810;63.824;20.288;2023-04-02T11:23:35;103540.97;;;5.18;50.57
13476;BME280;6810;63.824;20.288;2023-04-02T11:26:27;103539.28;;;5.26;51.06
13476;BME280;6810;63.824;20.288;2023-04-02T11:29:28;103546.38;;;5.31;50.40
13476;BME280;6810;63.824;20.288;2023-04-02T11:32:14;103549.97;;;5.41;50.32
13476;BME280;6810;63.824;20.288;2023-04-02T11:37:43;103551.88;;;5.57;50.50
13476;BME280;6810;63.824;20.288;2023-04-02T11:42:44;103557.28;;;5.74;49.24
13476;BME280;6810;63.824;20.288;2023-04-02T11:50:39;103554.00;;;6.03;49.54
13476;BME280;6810;63.824;20.288;2023-04-02T11:55:44;103527.56;;;6.09;48.99
13476;BME280;6810;63.824;20.288;2023-04-02T12:06:44;103568.41;;;6.67;48.54
13476;BME280;6810;63.824;20.288;2023-04-02T12:11:44;103540.16;;;6.70;47.61
13476;BME280;6810;63.824;20.288;2023-04-02T12:22:37;103567.66;;;7.21;47.21
13476;BME280;6810;63.824;20.288;2023-04-02T12:25:24;103561.47;;;7.29;47.52
13476;BME280;6810;63.824;20.288;2023-04-02T12:30:37;103549.09;;;7.27;46.44
13476;BME280;6810;63.824;20.288;2023-04-02T12:33:27;103573.88;;;7.54;46.60
13476;BME280;6810;63.824;20.288;2023-04-02T12:35:58;103567.66;;;7.61;46.08
13476;BME280;6810;63.824;20.288;2023-04-02T12:38:27;103568.56;;;7.69;45.95
13476;BME280;6810;63.824;20.288;2023-04-02T12:41:00;103568.56;;;7.71;45.79
13476;BME280;6810;63.824;20.288;2023-04-02T12:43:32;103568.53;;;7.78;45.38
13476;BME280;6810;63.824;20.288;2023-04-02T12:46:02;103579.16;;;7.86;45.25
13476;BME280;6810;63.824;20.288;2023-04-02T12:48:32;103571.19;;;7.92;45.33
13476;BME280;6810;63.824;20.288;2023-04-02T12:50:59;103572.06;;;7.98;44.84
13476;BME280;6810;63.824;20.288;2023-04-02T12:53:35;103568.53;;;8.02;44.92
13476;BME280;6810;63.824;20.288;2023-04-02T12:56:04;103572.03;;;8.06;44.57
13476;BME280;6810;63.824;20.288;2023-04-02T12:58:35;103572.03;;;8.09;44.28
13476;BME280;6810;63.824;20.288;2023-04-02T13:01:17;103570.25;;;8.11;44.04
13476;BME280;6810;63.824;20.288;2023-04-02T13:04:23;103577.34;;;8.10;43.77
13476;BME280;6810;63.824;20.288;2023-04-02T13:06:51;103526.03;;;7.89;43.65
13476;BME280;6810;63.824;20.288;2023-04-02T13:09:33;103563.19;;;8.16;43.35
13476;BME280;6810;63.824;20.288;2023-04-02T13:12:01;103573.81;;;8.17;43.37
13476;BME280;6810;63.824;20.288;2023-04-02T13:14:29;103567.59;;;8.20;43.57
13476;BME280;6810;63.824;20.288;2023-04-02T13:16:56;103584.44;;;8.25;43.61
13476;BME280;6810;63.824;20.288;2023-04-02T13:21:51;103586.19;;;8.29;42.84
13476;BME280;6810;63.824;20.288;2023-04-02T13:24:25;103579.97;;;8.30;42.81
13476;BME280;6810;63.824;20.288;2023-04-02T13:26:55;103578.22;;;8.30;42.81
13476;BME280;6810;63.824;20.288;2023-04-02T13:31:50;103582.63;;;8.33;42.13
13476;BME280;6810;63.824;20.288;2023-04-02T13:34:19;103534.84;;;8.06;42.28
13476;BME280;6810;63.824;20.288;2023-04-02T13:36:46;103587.06;;;8.35;42.47
13476;BME280;6810;63.824;20.288;2023-04-02T13:39:13;103579.97;;;8.31;42.32
13476;BME280;6810;63.824;20.288;2023-04-02T13:41:43;103586.16;;;8.35;41.96
13476;BME280;6810;63.824;20.288;2023-04-02T13:44:31;103589.72;;;8.31;42.39
13476;BME280;6810;63.824;20.288;2023-04-02T13:46:59;103600.38;;;8.28;42.12
13476;BME280;6810;63.824;20.288;2023-04-02T13:49:26;103599.47;;;8.26;41.99
13476;BME280;6810;63.824;20.288;2023-04-02T13:51:55;103595.94;;;8.27;42.00
13476;BME280;6810;63.824;20.288;2023-04-02T13:54:50;103601.25;;;8.24;42.21
13476;BME280;6810;63.824;20.288;2023-04-02T13:57:18;103601.25;;;8.22;42.03
13476;BME280;6810;63.824;20.288;2023-04-02T13:59:46;103609.19;;;8.21;41.65
13476;BME280;6810;63.824;20.288;2023-04-02T14:02:19;103611.88;;;8.16;41.58
13476;BME280;6810;63.824;20.288;2023-04-02T14:04:49;103586.25;;;7.96;41.65
13476;BME280;6810;63.824;20.288;2023-04-02T14:15:38;103614.56;;;7.94;41.02
13476;BME280;6810;63.824;20.288;2023-04-02T14:18:47;103552.66;;;7.53;41.36
13476;BME280;6810;63.824;20.288;2023-04-02T14:21:40;103609.25;;;7.82;41.28
13476;BME280;6810;63.824;20.288;2023-04-02T14:26:57;103622.56;;;7.68;40.72
13476;BME280;6810;63.824;20.288;2023-04-02T14:30:05;103624.31;;;7.59;40.98
13476;BME280;6810;63.824;20.288;2023-04-02T14:35:39;103617.22;;;7.46;40.95
13476;BME280;6810;63.824;20.288;2023-04-02T14:38:21;103609.22;;;7.34;40.98
13476;BME280;6810;63.824;20.288;2023-04-02T14:41:20;103618.97;;;7.35;41.19
13476;BME280;6810;63.824;20.288;2023-04-02T14:43:59;103618.09;;;7.30;40.91
13476;BME280;6810;63.824;20.288;2023-04-02T14:46:30;103620.72;;;7.24;40.58
13476;BME280;6810;63.824;20.288;2023-04-02T14:49:02;103623.38;;;7.16;40.63
13476;BME280;6810;63.824;20.288;2023-04-02T14:52:00;103619.81;;;7.08;40.25
13476;BME280;6810;63.824;20.288;2023-04-02T14:54:32;103624.19;;;7.00;39.87
13476;BME280;6810;63.824;20.288;2023-04-02T14:57:18;103631.25;;;6.93;40.87
13476;BME280;6810;63.824;20.288;2023-04-02T14:59:58;103629.47;;;6.88;40.84
13476;BME280;6810;63.824;20.288;2023-04-02T15:05:05;103634.72;;;6.77;40.91
13476;BME280;6810;63.824;20.288;2023-04-02T15:07:41;103589.56;;;6.50;40.45
13476;BME280;6810;63.824;20.288;2023-04-02T15:13:09;103575.31;;;6.24;40.56
13476;BME280;6810;63.824;20.288;2023-04-02T15:15:44;103624.91;;;6.49;40.80
13476;BME280;6810;63.824;20.288;2023-04-02T15:18:16;103620.41;;;6.39;40.73
13476;BME280;6810;63.824;20.288;2023-04-02T15:23:36;103647.78;;;6.38;40.92
13476;BME280;6810;63.824;20.288;2023-04-02T15:26:23;103637.13;;;6.26;41.65
13476;BME280;6810;63.824;20.288;2023-04-02T15:28:59;103647.72;;;6.25;41.82
13476;BME280;6810;63.824;20.288;2023-04-02T15:31:29;103573.19;;;5.77;41.50
13476;BME280;6810;63.824;20.288;2023-04-02T15:35:03;103659.06;;;6.12;41.06
13476;BME280;6810;63.824;20.288;2023-04-02T15:37:07;103657.25;;;6.03;41.64
13476;BME280;6810;63.824;20.288;2023-04-02T15:39:55;103636.81;;;5.87;41.24
13476;BME280;6810;63.824;20.288;2023-04-02T15:42:37;103659.81;;;5.90;42.00
13476;BME280;6810;63.824;20.288;2023-04-02T15:45:15;103663.25;;;5.83;41.76
13476;BME280;6810;63.824;20.288;2023-04-02T15:53:38;103681.56;;;5.60;42.14
13476;BME280;6810;63.824;20.288;2023-04-02T16:02:01;103660.91;;;5.27;41.39
13476;BME280;6810;63.824;20.288;2023-04-02T16:12:29;103694.28;;;5.13;41.18
13476;BME280;6810;63.824;20.288;2023-04-02T16:15:03;103693.28;;;5.05;42.22
13476;BME280;6810;63.824;20.288;2023-04-02T16:17:39;103693.19;;;4.96;42.03
13476;BME280;6810;63.824;20.288;2023-04-02T16:20:21;103640.59;;;4.49;41.42
13476;BME280;6810;63.824;20.288;2023-04-02T16:22:59;103715.00;;;4.82;41.93
13476;BME280;6810;63.824;20.288;2023-04-02T16:25:37;103616.44;;;4.20;42.38
13476;BME280;6810;63.824;20.288;2023-04-02T16:28:22;103708.56;;;4.63;42.60
13476;BME280;6810;63.824;20.288;2023-04-02T16:30:58;103714.66;;;4.56;42.07
13476;BME280;6810;63.824;20.288;2023-04-02T16:33:48;103690.50;;;4.31;42.35
13476;BME280;6810;63.824;20.288;2023-04-02T16:51:09;103737.50;;;4.01;41.69
13476;BME280;6810;63.824;20.288;2023-04-02T16:53:37;103739.16;;;3.93;42.22
13476;BME280;6810;63.824;20.288;2023-04-02T17:02:34;103750.09;;;3.66;42.69
13476;BME280;6810;63.824;20.288;2023-04-02T17:09:01;103750.56;;;3.45;43.53
13476;BME280;6810;63.824;20.288;2023-04-02T17:12:11;103750.31;;;3.33;42.88
13476;BME280;6810;63.824;20.288;2023-04-02T17:15:10;103765.25;;;3.31;42.51
13476;BME280;6810;63.824;20.288;2023-04-02T17:18:00;103688.66;;;2.82;44.04
13476;BME280;6810;63.824;20.288;2023-04-02T17:20:47;103759.44;;;3.07;43.53
13476;BME280;6810;63.824;20.288;2023-04-02T17:30:31;103751.75;;;2.76;43.38
13476;BME280;6810;63.824;20.288;2023-04-02T17:33:20;103783.66;;;2.90;43.87
13476;BME280;6810;63.824;20.288;2023-04-02T17:39:45;103785.06;;;2.76;43.87
13476;BME280;6810;63.824;20.288;2023-04-02T17:42:50;103793.72;;;2.69;44.92
13476;BME280;6810;63.824;20.288;2023-04-02T17:45:50;103798.78;;;2.61;44.01